Time;durP1;ratioP1;P1;durP2;ratioP2;P2;SDS_P1;SDS_P2;PMS_P1;PMS_P2;Temp;Humidity;BMP_temperature;BMP_pressure;BME280_temperature;BME280_humidity;BME280_pressure;Samples;Min_cycle;Max_cycle;Signal;HPM_P1;HPM_P2
2022/05/24 00:01:16;;;;;;;32.30;16.35;;;;;;;12.92;100.00;95341.59;5028264;28;20084;-75
2022/05/24 00:03:42;;;;;;;29.20;16.63;;;;;;;12.96;100.00;95348.00;5015455;28;20046;-72
2022/05/24 00:06:07;;;;;;;41.45;17.40;;;;;;;12.96;100.00;95340.72;5014370;28;20069;-74
2022/05/24 00:08:34;;;;;;;34.63;17.58;;;;;;;12.97;100.00;95336.16;5014194;28;20125;-75
2022/05/24 00:10:59;;;;;;;36.13;18.40;;;;;;;12.98;100.00;95335.84;5015858;28;20033;-73
2022/05/24 00:13:25;;;;;;;31.48;16.73;;;;;;;13.01;100.00;95324.56;5014908;28;20141;-74
2022/05/24 00:15:51;;;;;;;31.40;17.45;;;;;;;13.10;100.00;95332.75;5018314;28;20528;-73
2022/05/24 00:18:22;;;;;;;33.50;18.23;;;;;;;13.14;100.00;95332.94;5014149;28;20519;-72
2022/05/24 00:20:57;;;;;;;33.58;17.58;;;;;;;13.15;100.00;95330.00;5015161;28;20059;-74
2022/05/24 00:23:26;;;;;;;30.95;15.95;;;;;;;13.17;100.00;95335.88;5011937;28;20594;-74
2022/05/24 00:25:54;;;;;;;33.25;17.50;;;;;;;13.22;100.00;95337.69;5014228;28;20498;-76
2022/05/24 00:28:23;;;;;;;36.22;18.17;;;;;;;13.21;100.00;95334.22;5016200;28;20052;-75
2022/05/24 00:30:50;;;;;;;35.35;18.02;;;;;;;13.22;100.00;95329.63;4994625;28;20110;-76
2022/05/24 00:33:16;;;;;;;30.75;16.70;;;;;;;13.10;100.00;95325.50;5014678;28;20052;-73
2022/05/24 00:35:42;;;;;;;34.33;17.30;;;;;;;13.10;100.00;95322.81;5018015;28;20316;-74
2022/05/24 00:38:11;;;;;;;33.25;17.17;;;;;;;13.10;100.00;95333.53;5012819;28;20458;-72
2022/05/24 00:40:46;;;;;;;37.20;17.25;;;;;;;13.17;100.00;95332.38;5016294;28;20666;-72
2022/05/24 00:43:27;;;;;;;28.60;15.38;;;;;;;13.13;100.00;95342.91;5017555;28;20229;-73
2022/05/24 00:45:57;;;;;;;34.80;15.70;;;;;;;13.09;100.00;95331.16;4998419;28;20038;-72
2022/05/24 00:48:37;;;;;;;30.70;16.20;;;;;;;13.24;100.00;95340.91;5012393;28;20037;-75
2022/05/24 00:51:05;;;;;;;34.33;18.20;;;;;;;13.29;100.00;95335.44;5015762;28;20334;-77
2022/05/24 00:53:40;;;;;;;32.85;15.82;;;;;;;13.34;100.00;95335.38;5012970;28;20049;-73
2022/05/24 00:56:41;;;;;;;27.83;15.02;;;;;;;13.38;100.00;95334.50;5014038;28;20369;-76
2022/05/24 00:59:13;;;;;;;27.47;15.23;;;;;;;13.27;100.00;95337.63;4987532;28;20057;-72
2022/05/24 01:01:46;;;;;;;35.33;16.73;;;;;;;13.00;100.00;95339.06;5019528;28;20772;-77
2022/05/24 01:04:16;;;;;;;38.45;17.50;;;;;;;12.80;100.00;95360.81;5017804;28;20045;-73
2022/05/24 01:06:42;;;;;;;32.58;16.08;;;;;;;12.72;100.00;95364.16;5017264;28;20115;-72
2022/05/24 01:09:22;;;;;;;32.58;17.02;;;;;;;12.71;100.00;95357.19;5017359;28;20065;-76
2022/05/24 01:11:53;;;;;;;47.70;17.20;;;;;;;12.72;100.00;95356.88;5015998;28;20041;-73
2022/05/24 01:14:22;;;;;;;34.65;17.23;;;;;;;12.77;100.00;95348.78;5017764;28;20459;-75
2022/05/24 01:16:50;;;;;;;26.85;13.68;;;;;;;12.73;100.00;95352.31;5018150;28;20503;-72
2022/05/24 01:19:47;;;;;;;24.17;13.45;;;;;;;12.64;100.00;95359.41;5001052;28;20512;-74
2022/05/24 01:22:50;;;;;;;21.33;12.18;;;;;;;12.57;100.00;95353.59;4988752;28;20057;-75
2022/05/24 01:25:30;;;;;;;25.10;12.20;;;;;;;12.59;100.00;95364.84;5015754;28;20974;-75
2022/05/24 01:27:57;;;;;;;24.05;12.45;;;;;;;12.45;100.00;95370.91;5015504;28;20045;-73
2022/05/24 01:30:23;;;;;;;24.90;12.27;;;;;;;12.41;100.00;95369.09;5016315;28;20045;-73
2022/05/24 01:38:32;;;;;;;20.90;12.45;;;;;;;12.32;100.00;95358.19;5004647;28;20429;-74
2022/05/24 01:40:58;;;;;;;21.70;12.38;;;;;;;12.32;100.00;95355.50;5018066;28;20455;-74
2022/05/24 01:43:26;;;;;;;20.08;11.48;;;;;;;12.35;100.00;95354.94;5017013;28;20192;-72
2022/05/24 01:45:56;;;;;;;30.77;11.45;;;;;;;12.32;100.00;95355.50;5018287;28;20037;-72
2022/05/24 01:48:37;;;;;;;21.77;11.73;;;;;;;12.41;100.00;95350.31;5015584;28;20033;-75
2022/05/24 01:51:05;;;;;;;21.15;11.05;;;;;;;12.46;100.00;95343.00;5017566;28;20151;-76
2022/05/24 01:53:37;;;;;;;21.52;9.68;;;;;;;12.42;100.00;95355.38;5017687;28;20479;-72
2022/05/24 01:56:05;;;;;;;;;;;;;;;12.37;100.00;95335.84;5019852;28;20520;-75
2022/05/24 01:58:35;;;;;;;16.65;8.85;;;;;;;12.25;100.00;95341.63;5031820;28;20374;-72
2022/05/24 02:01:12;;;;;;;20.52;9.65;;;;;;;12.18;100.00;95338.50;5017920;28;21283;-72
2022/05/24 02:03:37;;;;;;;19.63;9.63;;;;;;;12.17;100.00;95353.78;5016957;28;20040;-75
2022/05/24 02:06:25;;;;;;;19.63;8.52;;;;;;;12.11;100.00;95356.81;5016124;28;20034;-74
2022/05/24 02:08:52;;;;;;;15.75;8.25;;;;;;;12.12;100.00;95355.72;5016124;28;20030;-74
2022/05/24 02:11:25;;;;;;;12.60;6.82;;;;;;;12.14;100.00;95353.53;5015042;28;20052;-74
2022/05/24 02:13:58;;;;;;;15.23;7.97;;;;;;;12.14;100.00;95357.06;5018228;28;20049;-73
2022/05/24 02:16:29;;;;;;;15.00;7.95;;;;;;;12.20;100.00;95352.41;5017773;28;20037;-76
2022/05/24 02:18:54;;;;;;;;;;;;;;;12.24;100.00;95348.88;5017476;28;20445;-72
2022/05/24 02:21:22;;;;;;;13.07;6.70;;;;;;;12.06;100.00;95346.94;5017586;28;19921;-75
2022/05/24 02:23:50;;;;;;;13.25;7.07;;;;;;;12.07;100.00;95345.06;5019901;28;20048;-74
2022/05/24 02:26:19;;;;;;;13.50;7.78;;;;;;;12.06;100.00;95340.75;5032461;28;20460;-74
2022/05/24 02:28:49;;;;;;;13.90;7.88;;;;;;;12.22;100.00;95334.97;5017132;28;20044;-73
2022/05/24 02:31:18;;;;;;;12.98;7.07;;;;;;;12.18;100.00;95333.13;5002564;28;20049;-74
2022/05/24 02:33:45;;;;;;;11.02;6.53;;;;;;;12.08;100.00;95322.53;5012825;28;20507;-73
2022/05/24 02:36:11;;;;;;;11.38;6.88;;;;;;;12.22;100.00;95321.56;5027587;28;20045;-73
2022/05/24 02:38:37;;;;;;;12.70;6.75;;;;;;;12.23;100.00;95319.69;5016257;28;20108;-73
2022/05/24 02:43:47;;;;;;;11.63;6.85;;;;;;;12.10;100.00;95302.38;5013946;28;20038;-73
2022/05/24 02:46:16;;;;;;;17.38;7.22;;;;;;;11.98;100.00;95296.59;5016878;28;20065;-74
2022/05/24 02:48:42;;;;;;;13.55;6.25;;;;;;;11.89;100.00;95299.13;5029826;28;20045;-74
2022/05/24 02:51:11;;;;;;;12.80;7.10;;;;;;;11.90;100.00;95281.16;5016067;28;20524;-72
2022/05/24 02:53:40;;;;;;;13.23;6.47;;;;;;;12.03;100.00;95293.88;5019055;28;20523;-74
2022/05/24 02:56:07;;;;;;;16.40;7.50;;;;;;;12.06;100.00;95293.31;5015109;28;20041;-73
2022/05/24 02:58:32;;;;;;;12.20;6.75;;;;;;;12.09;100.00;95298.09;5017302;28;20519;-72
2022/05/24 03:00:58;;;;;;;14.82;7.78;;;;;;;12.10;100.00;95302.38;5018026;28;20057;-75
2022/05/24 03:03:24;;;;;;;13.25;6.80;;;;;;;12.12;100.00;95302.88;5019391;28;20144;-72
2022/05/24 03:05:49;;;;;;;19.52;7.63;;;;;;;12.13;100.00;95303.69;4997751;28;20042;-73
2022/05/24 03:11:00;;;;;;;14.88;7.55;;;;;;;12.05;100.00;95301.63;5013921;28;20042;-76
2022/05/24 03:16:11;;;;;;;16.65;7.15;;;;;;;12.08;100.00;95311.81;5017636;28;20385;-73
2022/05/24 03:18:37;;;;;;;15.13;7.72;;;;;;;12.08;100.00;95312.59;5018055;28;20025;-72
2022/05/24 03:21:03;;;;;;;22.33;8.07;;;;;;;12.05;100.00;95305.09;5016840;28;20048;-76
2022/05/24 03:23:29;;;;;;;16.75;7.75;;;;;;;11.97;100.00;95295.81;5015381;28;20056;-74
2022/05/24 03:25:54;;;;;;;11.63;7.15;;;;;;;11.91;100.00;95294.28;5013870;28;20485;-73
2022/05/24 03:28:20;;;;;;;12.85;6.95;;;;;;;11.92;100.00;95298.56;5013997;28;20037;-74
2022/05/24 03:30:46;;;;;;;12.85;7.30;;;;;;;11.88;100.00;95294.84;5013132;28;20041;-73
2022/05/24 03:33:12;;;;;;;15.15;8.20;;;;;;;11.93;100.00;95297.47;5015868;28;20465;-73
2022/05/24 03:35:39;;;;;;;15.80;8.40;;;;;;;11.93;100.00;95288.63;4992715;28;20072;-76
2022/05/24 03:38:04;;;;;;;14.35;8.38;;;;;;;11.96;100.00;95282.69;5009856;28;20040;-72
2022/05/24 03:40:30;;;;;;;13.63;7.75;;;;;;;12.03;100.00;95277.00;5015359;28;20041;-72
2022/05/24 03:42:56;;;;;;;13.77;7.63;;;;;;;12.01;100.00;95281.84;5013654;28;20038;-72
2022/05/24 03:45:22;;;;;;;19.38;8.63;;;;;;;12.14;100.00;95292.69;5013467;28;20751;-72
2022/05/24 03:47:48;;;;;;;16.75;8.52;;;;;;;12.06;100.00;95287.13;5003243;28;20060;-74
2022/05/24 03:50:14;;;;;;;12.77;7.18;;;;;;;12.04;100.00;95282.06;5017026;28;20033;-73
2022/05/24 03:52:40;;;;;;;16.65;7.55;;;;;;;11.97;100.00;95271.69;5031897;28;20492;-72
2022/05/24 03:55:06;;;;;;;20.77;8.23;;;;;;;11.98;100.00;95275.16;5014450;28;20418;-72
2022/05/24 04:00:21;;;;;;;14.40;8.52;;;;;;;12.05;100.00;95285.53;5031219;28;20041;-76
2022/05/24 04:02:47;;;;;;;13.52;7.38;;;;;;;12.02;100.00;95280.75;5015012;28;20424;-72
2022/05/24 04:05:13;;;;;;;12.10;7.00;;;;;;;11.90;100.00;95279.25;5015001;28;20068;-72
2022/05/24 04:07:39;;;;;;;15.38;7.30;;;;;;;11.88;100.00;95281.44;5013983;28;20124;-74
2022/05/24 04:10:07;;;;;;;14.25;8.20;;;;;;;11.99;100.00;95280.25;5014824;28;20247;-72
2022/05/24 04:12:33;;;;;;;12.60;7.47;;;;;;;11.94;100.00;95282.19;5011748;28;20044;-72
2022/05/24 04:14:58;;;;;;;13.90;7.50;;;;;;;11.99;100.00;95284.81;5030645;28;20041;-72
2022/05/24 04:17:23;;;;;;;16.35;7.40;;;;;;;11.97;100.00;95273.56;5017527;28;20045;-74
2022/05/24 04:19:49;;;;;;;12.40;7.35;;;;;;;11.88;100.00;95281.44;5017508;28;20090;-73
2022/05/24 04:22:15;;;;;;;14.00;7.75;;;;;;;11.91;100.00;95272.84;5018381;28;20136;-72
2022/05/24 04:24:40;;;;;;;19.73;8.60;;;;;;;11.92;100.00;95279.78;5015814;28;20041;-73
2022/05/24 04:27:07;;;;;;;13.60;8.20;;;;;;;11.92;100.00;95285.16;5014128;28;20039;-72
2022/05/24 04:29:33;;;;;;;15.27;8.50;;;;;;;11.87;100.00;95295.94;5015198;28;20037;-74
2022/05/24 04:31:58;;;;;;;14.52;8.05;;;;;;;11.90;100.00;95302.59;5015682;28;20425;-75
2022/05/24 04:34:25;;;;;;;17.10;9.13;;;;;;;11.78;100.00;95308.31;5018245;28;20477;-74
2022/05/24 04:36:50;;;;;;;15.80;8.13;;;;;;;11.81;100.00;95312.34;5018131;28;20045;-74
2022/05/24 04:39:17;;;;;;;15.32;8.60;;;;;;;11.79;100.00;95315.28;5018718;28;20048;-73
2022/05/24 04:44:26;;;;;;;16.58;8.38;;;;;;;11.92;100.00;95329.94;5015071;28;20080;-74
2022/05/24 04:47:07;;;;;;;13.88;8.10;;;;;;;11.95;100.00;95335.50;5015996;28;20072;-74
2022/05/24 04:49:34;;;;;;;17.10;9.63;;;;;;;12.00;100.00;95334.66;5001695;28;20046;-73
2022/05/24 04:52:01;;;;;;;16.45;8.25;;;;;;;12.02;100.00;95337.06;5018715;28;20509;-72
2022/05/24 04:54:27;;;;;;;13.88;7.88;;;;;;;11.94;100.00;95344.66;5018386;28;20045;-73
2022/05/24 04:56:52;;;;;;;16.02;9.15;;;;;;;11.97;100.00;95354.78;5019990;28;20048;-74
2022/05/24 04:59:20;;;;;;;13.15;8.38;;;;;;;11.89;100.00;95357.28;5015919;28;20099;-72
2022/05/24 05:01:46;;;;;;;17.23;7.20;;;;;;;11.93;100.00;95363.69;5020020;28;20132;-72
2022/05/24 05:04:11;;;;;;;17.52;7.85;;;;;;;11.87;100.00;95367.50;5033382;28;20038;-72
2022/05/24 05:06:41;;;;;;;18.77;8.35;;;;;;;11.90;100.00;95365.03;5018512;28;20045;-72
2022/05/24 05:09:09;;;;;;;17.45;9.30;;;;;;;11.88;100.00;95377.94;5019012;28;20069;-72
2022/05/24 05:11:34;;;;;;;14.27;8.20;;;;;;;11.73;100.00;95376.16;5019298;28;20257;-72
2022/05/24 05:14:00;;;;;;;18.33;9.35;;;;;;;11.72;100.00;95384.47;5018224;28;20563;-72
2022/05/24 05:16:25;;;;;;;19.33;8.75;;;;;;;11.66;100.00;95390.97;5016329;28;20135;-72
2022/05/24 05:18:51;;;;;;;17.27;9.40;;;;;;;11.76;100.00;95385.53;5033119;28;20041;-73
2022/05/24 05:21:16;;;;;;;16.60;9.73;;;;;;;11.71;100.00;95393.59;5020305;28;20147;-74
2022/05/24 05:23:42;;;;;;;17.15;9.30;;;;;;;11.67;100.00;95398.75;5019907;28;20055;-71
2022/05/24 05:26:09;;;;;;;18.27;9.57;;;;;;;11.73;100.00;95402.97;5017692;28;20153;-72
2022/05/24 05:28:34;;;;;;;18.55;9.32;;;;;;;11.77;100.00;95411.25;5016775;28;20033;-72
2022/05/24 05:31:22;;;;;;;19.85;9.90;;;;;;;11.79;100.00;95406.41;5022563;28;20484;-72
2022/05/24 05:33:48;;;;;;;13.70;8.55;;;;;;;11.81;100.00;95414.19;5018982;28;20099;-72
2022/05/24 05:36:14;;;;;;;17.58;7.95;;;;;;;11.82;100.00;95421.16;5017768;28;20041;-75
2022/05/24 05:38:47;;;;;;;19.08;8.02;;;;;;;11.71;100.00;95415.03;5016632;28;20052;-76
2022/05/24 05:41:21;;;;;;;24.70;9.57;;;;;;;11.68;100.00;95413.75;5016030;28;20042;-73
2022/05/24 05:43:47;;;;;;;13.60;6.65;;;;;;;11.77;100.00;95450.66;5018458;28;20497;-76
2022/05/24 05:46:16;;;;;;;5.88;2.75;;;;;;;11.51;100.00;95458.06;5018636;28;20416;-75
2022/05/24 05:48:42;;;;;;;4.00;1.88;;;;;;;11.15;100.00;95466.31;5001166;28;20088;-75
2022/05/24 05:51:09;;;;;;;5.72;1.67;;;;;;;11.03;100.00;95473.84;5017600;28;20037;-74
2022/05/24 05:53:36;;;;;;;4.57;2.17;;;;;;;11.03;100.00;95481.88;5017903;28;20033;-74
2022/05/24 05:56:04;;;;;;;6.82;2.00;;;;;;;11.11;100.00;95481.31;5020473;28;20152;-73
2022/05/24 05:58:31;;;;;;;7.15;1.85;;;;;;;11.14;100.00;95484.25;5014968;28;20603;-72
2022/05/24 06:00:57;;;;;;;3.53;1.55;;;;;;;11.15;100.00;95482.38;5019685;28;20049;-73
2022/05/24 06:03:23;;;;;;;5.18;2.00;;;;;;;11.20;100.00;95478.84;5018081;28;20072;-72
2022/05/24 06:05:52;;;;;;;5.53;1.70;;;;;;;11.24;100.00;95482.59;5002076;28;20129;-74
2022/05/24 06:08:18;;;;;;;6.07;1.75;;;;;;;11.16;100.00;95479.41;5015899;28;20488;-75
2022/05/24 06:10:44;;;;;;;5.97;1.67;;;;;;;11.12;100.00;95489.06;5018994;28;20034;-72
2022/05/24 06:13:10;;;;;;;4.78;1.80;;;;;;;11.09;100.00;95484.28;5017894;28;20233;-72
2022/05/24 06:15:37;;;;;;;6.30;1.70;;;;;;;11.03;100.00;95489.91;5017565;28;20356;-72
2022/05/24 06:18:04;;;;;;;13.35;1.75;;;;;;;11.03;100.00;95501.41;5015896;28;20563;-75
2022/05/24 06:20:31;;;;;;;6.13;1.70;;;;;;;11.04;100.00;95510.25;5015065;28;20354;-72
2022/05/24 06:23:00;;;;;;;6.78;2.45;;;;;;;11.02;100.00;95513.22;5022577;28;20391;-76
2022/05/24 06:25:29;;;;;;;5.68;2.25;;;;;;;10.98;100.00;95512.16;5017604;28;20037;-72
2022/05/24 06:27:55;;;;;;;7.05;2.05;;;;;;;11.05;100.00;95517.22;5013933;28;20064;-74
2022/05/24 06:30:23;;;;;;;5.40;2.70;;;;;;;11.14;100.00;95512.91;5016543;28;20402;-73
2022/05/24 06:32:51;;;;;;;6.85;1.90;;;;;;;11.17;100.00;95493.59;5017147;28;20480;-75
2022/05/24 06:35:18;;;;;;;6.65;2.17;;;;;;;11.25;100.00;95492.22;5014727;28;20116;-75
2022/05/24 06:37:44;;;;;;;7.40;2.35;;;;;;;11.38;100.00;95479.03;5019117;28;20542;-72
2022/05/24 06:40:13;;;;;;;4.28;2.10;;;;;;;11.32;100.00;95471.31;5016279;28;20496;-73
2022/05/24 06:42:39;;;;;;;6.78;2.28;;;;;;;11.57;100.00;95456.94;5014921;28;20097;-76
2022/05/24 06:45:05;;;;;;;7.20;2.67;;;;;;;11.78;100.00;95441.53;5029167;28;20112;-73
2022/05/24 06:47:31;;;;;;;4.45;2.30;;;;;;;11.89;100.00;95448.44;5033957;28;20048;-73
2022/05/24 06:49:57;;;;;;;7.90;2.10;;;;;;;11.88;100.00;95471.75;5018423;28;20045;-73
2022/05/24 06:52:23;;;;;;;8.45;2.03;;;;;;;11.97;100.00;95475.44;5016304;28;20042;-74
2022/05/24 06:54:49;;;;;;;4.97;1.95;;;;;;;12.37;100.00;95497.59;5016824;28;20075;-74
2022/05/24 06:57:15;;;;;;;7.45;2.17;;;;;;;12.38;100.00;95483.13;5009671;28;20128;-73
2022/05/24 07:02:28;;;;;;;10.82;2.25;;;;;;;11.97;100.00;95509.47;5018722;28;20068;-75
2022/05/24 07:05:03;;;;;;;8.88;2.17;;;;;;;11.87;100.00;95523.75;5019244;28;20546;-72
2022/05/24 07:07:32;;;;;;;7.43;2.33;;;;;;;11.80;100.00;95534.00;5018059;28;20374;-73
2022/05/24 07:09:59;;;;;;;5.88;2.40;;;;;;;11.83;100.00;95538.00;5018677;28;20483;-72
2022/05/24 07:12:26;;;;;;;4.75;1.92;;;;;;;11.65;100.00;95539.41;5012982;28;20103;-73
2022/05/24 07:14:52;;;;;;;5.63;2.03;;;;;;;11.62;100.00;95540.78;5016601;28;20060;-73
2022/05/24 07:17:18;;;;;;;4.05;1.70;;;;;;;11.76;100.00;95537.50;5018930;28;20124;-76
2022/05/24 07:19:45;;;;;;;6.47;2.20;;;;;;;11.85;100.00;95544.69;5012552;28;20040;-73
2022/05/24 07:22:12;;;;;;;5.75;1.73;;;;;;;12.10;100.00;95542.91;5013377;28;20103;-74
2022/05/24 07:24:38;;;;;;;6.97;1.80;;;;;;;12.30;100.00;95541.97;5001548;28;20484;-76
2022/05/24 07:27:07;;;;;;;7.47;2.03;;;;;;;12.44;100.00;95550.94;5014732;28;20128;-73
2022/05/24 07:29:36;;;;;;;6.50;2.35;;;;;;;12.32;100.00;95554.00;5000193;28;20033;-72
2022/05/24 07:32:02;;;;;;;10.65;2.10;;;;;;;12.38;100.00;95547.53;5032270;28;20048;-75
2022/05/24 07:34:28;;;;;;;7.07;1.77;;;;;;;12.38;100.00;95534.09;5016125;28;20036;-75
2022/05/24 07:36:53;;;;;;;13.75;2.28;;;;;;;12.13;100.00;95553.88;5019657;28;20050;-73
2022/05/24 07:39:19;;;;;;;4.00;1.90;;;;;;;11.98;100.00;95554.81;5015931;28;20041;-73
2022/05/24 07:47:14;;;;;;;7.35;2.35;;;;;;;11.88;100.00;95549.50;5015075;28;20049;-73
2022/05/24 07:49:39;;;;;;;4.93;2.20;;;;;;;12.30;100.00;95547.34;5015990;28;20439;-73
2022/05/24 07:52:05;;;;;;;8.82;2.17;;;;;;;12.46;100.00;95552.28;5015971;28;20611;-73
2022/05/24 07:54:32;;;;;;;4.43;1.85;;;;;;;13.03;100.00;95541.78;5032795;28;20025;-73
2022/05/24 07:56:58;;;;;;;4.47;1.30;;;;;;;13.44;100.00;95547.47;5018788;28;20056;-75
2022/05/24 07:59:24;;;;;;;3.85;1.10;;;;;;;13.50;100.00;95532.91;5017749;28;20041;-73
2022/05/24 08:01:49;;;;;;;1.80;0.70;;;;;;;13.53;100.00;95559.19;5014111;28;20050;-74
2022/05/24 08:04:14;;;;;;;1.80;0.80;;;;;;;13.38;100.00;95560.22;5015291;28;20454;-73
2022/05/24 08:06:40;;;;;;;2.35;0.95;;;;;;;13.51;100.00;95552.50;5018037;28;20110;-76
2022/05/24 08:09:06;;;;;;;2.75;1.05;;;;;;;13.13;100.00;95551.59;5018177;28;20545;-74
2022/05/24 08:11:32;;;;;;;2.42;0.80;;;;;;;12.76;100.00;95567.31;5020755;28;20092;-72
2022/05/24 08:14:02;;;;;;;3.83;1.20;;;;;;;12.27;100.00;95573.59;5020860;28;20307;-75
2022/05/24 08:16:32;;;;;;;1.70;0.67;;;;;;;12.00;100.00;95586.69;5018731;28;20045;-75
2022/05/24 08:18:58;;;;;;;2.75;1.15;;;;;;;11.94;100.00;95590.47;5017651;28;20059;-73
2022/05/24 08:21:27;;;;;;;2.63;0.93;;;;;;;12.04;100.00;95592.28;5020504;28;20147;-75
2022/05/24 08:23:52;;;;;;;2.45;0.75;;;;;;;12.14;100.00;95589.53;5021003;28;20919;-74
2022/05/24 08:26:18;;;;;;;2.50;0.95;;;;;;;12.46;100.00;95603.25;5022488;28;20125;-74
2022/05/24 08:28:43;;;;;;;3.28;1.00;;;;;;;12.55;100.00;95604.25;5015935;28;20040;-73
2022/05/24 08:31:09;;;;;;;3.33;1.10;;;;;;;12.64;100.00;95612.50;5015549;28;20068;-74
2022/05/24 08:33:35;;;;;;;4.57;1.20;;;;;;;12.49;100.00;95624.16;5017548;28;20050;-74
2022/05/24 08:36:01;;;;;;;5.95;1.30;;;;;;;12.53;100.00;95627.88;5016590;28;20090;-75
2022/05/24 08:38:28;;;;;;;3.80;1.08;;;;;;;12.62;100.00;95629.97;5015260;28;20041;-75
2022/05/24 08:40:58;;;;;;;4.53;1.40;;;;;;;13.06;100.00;95619.06;5019158;28;20045;-73
2022/05/24 08:43:56;;;;;;;2.53;1.20;;;;;;;13.44;100.00;95633.47;5016716;28;20047;-76
2022/05/24 08:49:18;;;;;;;5.38;1.40;;;;;;;13.82;100.00;95645.13;5020131;28;20095;-73
2022/05/24 08:51:49;;;;;;;4.70;1.40;;;;;;;14.48;100.00;95648.84;5021180;28;20065;-74
2022/05/24 08:54:19;;;;;;;6.70;1.33;;;;;;;14.93;100.00;95643.78;5020250;28;20128;-72
2022/05/24 08:56:55;;;;;;;4.57;1.60;;;;;;;15.00;100.00;95630.72;5019191;28;20276;-73
2022/05/24 08:59:32;;;;;;;3.28;1.20;;;;;;;15.26;100.00;95636.50;5018141;28;20307;-72
2022/05/24 09:01:59;;;;;;;3.53;1.40;;;;;;;15.30;100.00;95632.09;5020057;28;20615;-73
2022/05/24 09:04:25;;;;;;;3.97;1.35;;;;;;;15.69;100.00;95620.03;5020229;28;20033;-73
2022/05/24 09:06:51;;;;;;;4.78;1.20;;;;;;;15.86;100.00;95629.09;5018516;28;20132;-73
2022/05/24 09:09:28;;;;;;;7.68;1.45;;;;;;;15.85;100.00;95624.81;5015324;28;20044;-72
2022/05/24 09:12:00;;;;;;;2.80;1.30;;;;;;;15.69;100.00;95631.63;5019939;28;20161;-73
2022/05/24 09:14:49;;;;;;;4.80;1.20;;;;;;;15.45;100.00;95639.09;5018387;28;20041;-75
2022/05/24 09:17:31;;;;;;;3.47;1.30;;;;;;;15.75;100.00;95641.22;5018605;28;20045;-72
2022/05/24 09:19:57;;;;;;;3.67;1.35;;;;;;;16.06;100.00;95644.09;5019912;28;20046;-75
2022/05/24 09:22:22;;;;;;;6.47;1.45;;;;;;;16.42;100.00;95638.69;5018833;28;20084;-74
2022/05/24 09:24:56;;;;;;;4.65;1.60;;;;;;;15.95;100.00;95658.06;5020135;28;20091;-75
2022/05/24 09:27:53;;;;;;;2.80;1.15;;;;;;;15.53;100.00;95659.97;5015238;28;20041;-72
2022/05/24 09:30:22;;;;;;;4.35;1.42;;;;;;;14.98;100.00;95665.25;5018571;28;20040;-73
2022/05/24 09:32:47;;;;;;;3.53;1.20;;;;;;;14.91;100.00;95670.22;5018491;28;20065;-72
2022/05/24 09:35:16;;;;;;;9.40;1.40;;;;;;;14.98;100.00;95668.75;5021467;28;20133;-72
2022/05/24 09:37:43;;;;;;;8.07;1.40;;;;;;;15.39;100.00;95678.00;5019229;28;20598;-74
2022/05/24 09:40:23;;;;;;;3.05;1.23;;;;;;;15.11;100.00;95674.47;5018151;28;20148;-75
2022/05/24 09:42:49;;;;;;;3.45;0.88;;;;;;;15.17;100.00;95679.47;5013994;28;20441;-72
2022/05/24 09:45:18;;;;;;;2.90;1.10;;;;;;;15.35;100.00;95683.22;5000779;28;20512;-74
2022/05/24 09:47:43;;;;;;;5.60;1.00;;;;;;;15.26;100.00;95693.09;5018756;28;20033;-73
2022/05/24 09:50:18;;;;;;;6.65;1.20;;;;;;;15.92;100.00;95691.06;5019310;28;20338;-73
2022/05/24 09:53:03;;;;;;;6.45;1.25;;;;;;;15.67;100.00;95692.38;5016488;28;20582;-73
2022/05/24 09:55:55;;;;;;;6.50;1.08;;;;;;;15.30;100.00;95699.47;5020289;28;20038;-72
2022/05/24 09:58:33;;;;;;;4.03;1.05;;;;;;;15.15;100.00;95708.59;5019492;28;20099;-73
2022/05/24 10:01:11;;;;;;;3.85;0.90;;;;;;;15.56;100.00;95697.94;5017438;28;20057;-75
2022/05/24 10:03:43;;;;;;;6.82;1.02;;;;;;;15.47;100.00;95698.88;5016060;28;20065;-73
2022/05/24 10:06:30;;;;;;;10.88;1.30;;;;;;;16.15;100.00;95696.22;5030512;28;21069;-72
2022/05/24 10:09:17;;;;;;;3.00;1.05;;;;;;;16.95;100.00;95694.72;5015971;28;20041;-74
2022/05/24 10:11:52;;;;;;;3.60;1.02;;;;;;;17.16;100.00;95688.84;5015844;28;20045;-73
2022/05/24 10:14:50;;;;;;;7.35;1.10;;;;;;;16.98;100.00;95691.44;5016918;28;20053;-73
2022/05/24 10:17:43;;;;;;;2.35;0.90;;;;;;;16.56;100.00;95702.66;4985239;28;20176;-73
2022/05/24 10:20:22;;;;;;;2.17;0.90;;;;;;;16.11;100.00;95691.75;5016902;28;20605;-72
2022/05/24 10:23:04;;;;;;;6.13;1.08;;;;;;;15.96;100.00;95694.78;5016664;28;20128;-73
2022/05/24 10:25:39;;;;;;;4.15;1.02;;;;;;;15.38;100.00;95706.06;5017149;28;20052;-73
2022/05/24 10:28:13;;;;;;;1.98;0.80;;;;;;;15.35;100.00;95710.16;5018533;28;20404;-75
2022/05/24 10:31:02;;;;;;;3.95;0.98;;;;;;;15.31;100.00;95712.63;5011112;28;20045;-73
2022/05/24 10:40:23;;;;;;;3.40;0.90;;;;;;;16.71;100.00;95708.53;5012570;28;20266;-73
2022/05/24 10:42:58;;;;;;;6.15;1.42;;;;;;;17.37;100.00;95698.03;5014454;28;20491;-75
2022/05/24 10:45:49;;;;;;;3.08;1.00;;;;;;;17.64;100.00;95707.06;5015716;28;20051;-75
2022/05/24 10:48:22;;;;;;;5.70;1.00;;;;;;;17.36;100.00;95698.34;5013355;28;20069;-76
2022/05/24 10:50:53;;;;;;;4.28;0.98;;;;;;;17.99;100.00;95697.22;5014313;28;20038;-76
2022/05/24 10:53:50;;;;;;;4.03;1.00;;;;;;;17.51;100.00;95695.25;5016384;28;20124;-74
2022/05/24 10:56:25;;;;;;;4.68;1.02;;;;;;;16.87;100.00;95703.56;5001286;28;20544;-75
2022/05/24 10:58:52;;;;;;;6.22;1.20;;;;;;;16.83;100.00;95709.91;5013811;28;20116;-72
2022/05/24 11:01:50;;;;;;;3.95;1.05;;;;;;;16.18;100.00;95713.72;5014087;28;20201;-74
2022/05/24 11:04:41;;;;;;;5.70;1.35;;;;;;;15.98;100.00;95719.53;5012015;28;20045;-75
2022/05/24 11:07:11;;;;;;;;;;;;;;;16.04;100.00;95729.13;5012030;28;20747;-73
2022/05/24 11:09:46;;;;;;;4.32;1.10;;;;;;;16.48;100.00;95725.78;5005992;28;19935;-73
2022/05/24 11:12:19;;;;;;;10.55;1.33;;;;;;;16.88;100.00;95724.06;5015490;28;20108;-72
2022/05/24 11:14:53;;;;;;;2.55;1.02;;;;;;;16.50;100.00;95726.28;5017083;28;20060;-75
2022/05/24 11:17:20;;;;;;;2.50;0.90;;;;;;;15.91;100.00;95716.44;5013203;28;20033;-74
2022/05/24 11:19:50;;;;;;;6.72;1.23;;;;;;;15.61;100.00;95724.00;5017427;28;20161;-73
2022/05/24 11:22:15;;;;;;;5.68;1.05;;;;;;;15.57;100.00;95720.28;5028439;28;20515;-72
2022/05/24 11:24:51;;;;;;;2.60;0.88;;;;;;;15.65;100.00;95727.72;5013925;28;20041;-73
2022/05/24 11:27:28;;;;;;;5.05;1.23;;;;;;;15.44;100.00;95737.25;5014901;28;20038;-73
2022/05/24 11:30:15;;;;;;;4.55;0.80;;;;;;;15.14;100.00;95741.25;5014772;28;20037;-72
2022/05/24 11:33:09;;;;;;;5.32;1.30;;;;;;;14.99;100.00;95750.38;5012228;28;20088;-75
2022/05/24 11:35:39;;;;;;;7.20;1.00;;;;;;;14.60;100.00;95754.16;5030550;28;21110;-75
2022/05/24 11:38:17;;;;;;;2.65;1.00;;;;;;;15.48;100.00;95738.22;5013701;28;20088;-72
2022/05/24 11:41:09;;;;;;;4.93;1.25;;;;;;;14.85;100.00;95749.50;5030084;28;20049;-73
2022/05/24 11:43:43;;;;;;;;;;;;;;;15.48;100.00;95751.72;5016585;28;20045;-73
2022/05/24 11:46:34;;;;;;;3.22;0.90;;;;;;;17.54;100.00;95744.09;4999629;28;20307;-73
2022/05/24 11:49:21;;;;;;;3.00;1.10;;;;;;;21.88;79.63;95730.22;5016743;28;20087;-76
2022/05/24 11:51:49;;;;;;;2.55;1.00;;;;;;;26.32;47.33;95730.88;5015732;28;20033;-73
2022/05/24 11:54:23;;;;;;;2.30;0.82;;;;;;;27.02;40.10;95727.63;5012892;28;20078;-73
2022/05/24 11:57:01;;;;;;;3.63;1.05;;;;;;;28.33;40.06;95730.28;5013624;28;20045;-76
2022/05/24 11:59:38;;;;;;;6.38;2.17;;;;;;;29.73;33.01;95734.63;5013987;28;20403;-76
2022/05/24 12:02:19;;;;;;;3.20;0.98;;;;;;;32.02;30.03;95727.63;4982813;28;20141;-72
2022/05/24 12:07:56;;;;;;;3.13;1.00;;;;;;;30.43;31.41;95719.41;5013933;28;20048;-72
2022/05/24 12:10:21;;;;;;;3.10;0.90;;;;;;;29.62;35.40;95716.09;5012766;28;20046;-73
2022/05/24 12:12:50;;;;;;;2.05;1.00;;;;;;;30.12;32.21;95726.47;5014403;28;20041;-74
2022/05/24 12:15:26;;;;;;;3.97;1.00;;;;;;;32.24;31.25;95726.28;5032035;28;20038;-74
2022/05/24 12:18:16;;;;;;;5.22;0.95;;;;;;;30.10;28.26;95740.66;5013715;28;20037;-74